sensor_id;sensor_type;location;lat;lon;timestamp;temperature;humidity
9768;DHT22;4923;52.520;13.494;2023-11-21T00:00:27;7.50;99.90
9768;DHT22;4923;52.520;13.494;2023-11-21T00:03:15;7.40;99.90
9768;DHT22;4923;52.520;13.494;2023-11-21T00:06:03;7.40;99.90
9768;DHT22;4923;52.520;13.494;2023-11-21T00:08:50;7.30;99.90
9768;DHT22;4923;52.520;13.494;2023-11-21T00:11:37;7.30;99.90
9768;DHT22;4923;52.520;13.494;2023-11-21T00:14:24;7.30;99.90
9768;DHT22;4923;52.520;13.494;2023-11-21T00:17:11;7.30;99.90
9768;DHT22;4923;52.520;13.494;2023-11-21T00:19:59;7.30;99.90
9768;DHT22;4923;52.520;13.494;2023-11-21T00:22:46;7.20;99.90
9768;DHT22;4923;52.520;13.494;2023-11-21T00:25:33;7.10;99.90
9768;DHT22;4923;52.520;13.494;2023-11-21T00:28:20;6.90;99.90
9768;DHT22;4923;52.520;13.494;2023-11-21T00:31:08;7.00;99.90
9768;DHT22;4923;52.520;13.494;2023-11-21T00:33:54;7.00;99.90
9768;DHT22;4923;52.520;13.494;2023-11-21T00:36:43;6.90;99.90
9768;DHT22;4923;52.520;13.494;2023-11-21T00:39:29;6.90;99.90
9768;DHT22;4923;52.520;13.494;2023-11-21T00:42:18;6.80;99.90
9768;DHT22;4923;52.520;13.494;2023-11-21T00:45:09;6.80;99.90
9768;DHT22;4923;52.520;13.494;2023-11-21T00:47:55;6.80;99.90
9768;DHT22;4923;52.520;13.494;2023-11-21T00:50:44;6.70;99.90
9768;DHT22;4923;52.520;13.494;2023-11-21T00:53:32;6.70;99.90
9768;DHT22;4923;52.520;13.494;2023-11-21T00:56:19;6.70;99.90
9768;DHT22;4923;52.520;13.494;2023-11-21T00:59:06;6.60;99.90
9768;DHT22;4923;52.520;13.494;2023-11-21T01:01:53;6.60;99.90
9768;DHT22;4923;52.520;13.494;2023-11-21T01:04:40;6.60;99.90
9768;DHT22;4923;52.520;13.494;2023-11-21T01:07:26;6.70;99.90
9768;DHT22;4923;52.520;13.494;2023-11-21T01:10:15;6.50;99.90
9768;DHT22;4923;52.520;13.494;2023-11-21T01:13:03;6.40;99.90
9768;DHT22;4923;52.520;13.494;2023-11-21T01:15:51;6.40;99.90
9768;DHT22;4923;52.520;13.494;2023-11-21T01:18:38;6.30;99.90
9768;DHT22;4923;52.520;13.494;2023-11-21T01:21:25;6.30;99.90
9768;DHT22;4923;52.520;13.494;2023-11-21T01:24:11;6.30;99.90
9768;DHT22;4923;52.520;13.494;2023-11-21T01:27:00;6.30;99.90
9768;DHT22;4923;52.520;13.494;2023-11-21T01:29:46;6.30;99.90
9768;DHT22;4923;52.520;13.494;2023-11-21T01:32:33;6.20;99.90
9768;DHT22;4923;52.520;13.494;2023-11-21T01:35:20;6.20;99.90
9768;DHT22;4923;52.520;13.494;2023-11-21T01:38:07;6.30;99.90
9768;DHT22;4923;52.520;13.494;2023-11-21T01:40:54;6.30;99.90
9768;DHT22;4923;52.520;13.494;2023-11-21T01:43:42;6.30;99.90
9768;DHT22;4923;52.520;13.494;2023-11-21T01:46:29;6.20;99.90
9768;DHT22;4923;52.520;13.494;2023-11-21T01:49:16;6.30;99.90
9768;DHT22;4923;52.520;13.494;2023-11-21T01:52:04;6.20;99.90
9768;DHT22;4923;52.520;13.494;2023-11-21T01:54:51;6.30;99.90
9768;DHT22;4923;52.520;13.494;2023-11-21T01:57:39;6.30;99.90
9768;DHT22;4923;52.520;13.494;2023-11-21T02:00:27;6.20;99.90
9768;DHT22;4923;52.520;13.494;2023-11-21T02:03:14;6.10;99.90
9768;DHT22;4923;52.520;13.494;2023-11-21T02:06:02;6.00;99.90
9768;DHT22;4923;52.520;13.494;2023-11-21T02:08:49;6.00;99.90
9768;DHT22;4923;52.520;13.494;2023-11-21T02:11:36;6.10;99.90
9768;DHT22;4923;52.520;13.494;2023-11-21T02:14:25;6.00;99.90
9768;DHT22;4923;52.520;13.494;2023-11-21T02:17:14;6.00;99.90
9768;DHT22;4923;52.520;13.494;2023-11-21T02:20:04;6.00;99.90
9768;DHT22;4923;52.520;13.494;2023-11-21T02:22:54;6.00;99.90
9768;DHT22;4923;52.520;13.494;2023-11-21T02:25:43;6.00;99.90
9768;DHT22;4923;52.520;13.494;2023-11-21T02:28:30;6.00;99.90
9768;DHT22;4923;52.520;13.494;2023-11-21T02:31:18;5.90;99.90
9768;DHT22;4923;52.520;13.494;2023-11-21T02:34:05;6.00;99.90
9768;DHT22;4923;52.520;13.494;2023-11-21T02:36:52;6.00;99.90
9768;DHT22;4923;52.520;13.494;2023-11-21T02:39:40;6.00;99.90
9768;DHT22;4923;52.520;13.494;2023-11-21T02:42:27;6.00;99.90
9768;DHT22;4923;52.520;13.494;2023-11-21T02:45:15;6.00;99.90
9768;DHT22;4923;52.520;13.494;2023-11-21T02:48:02;6.00;99.90
9768;DHT22;4923;52.520;13.494;2023-11-21T02:50:50;5.90;99.90
9768;DHT22;4923;52.520;13.494;2023-11-21T02:53:38;6.00;99.90
9768;DHT22;4923;52.520;13.494;2023-11-21T02:56:27;5.90;99.90
9768;DHT22;4923;52.520;13.494;2023-11-21T02:59:13;5.90;99.90
9768;DHT22;4923;52.520;13.494;2023-11-21T03:02:01;5.90;99.90
9768;DHT22;4923;52.520;13.494;2023-11-21T03:04:48;5.80;99.90
9768;DHT22;4923;52.520;13.494;2023-11-21T03:07:35;5.80;99.90
9768;DHT22;4923;52.520;13.494;2023-11-21T03:10:22;5.80;99.90
9768;DHT22;4923;52.520;13.494;2023-11-21T03:13:11;5.90;99.90
9768;DHT22;4923;52.520;13.494;2023-11-21T03:15:58;5.90;99.90
9768;DHT22;4923;52.520;13.494;2023-11-21T03:18:45;5.80;99.90
9768;DHT22;4923;52.520;13.494;2023-11-21T03:21:32;5.80;99.90
9768;DHT22;4923;52.520;13.494;2023-11-21T03:24:19;5.90;99.90
9768;DHT22;4923;52.520;13.494;2023-11-21T03:27:08;5.70;99.90
9768;DHT22;4923;52.520;13.494;2023-11-21T03:29:56;5.80;99.90
9768;DHT22;4923;52.520;13.494;2023-11-21T03:32:43;5.80;99.90
9768;DHT22;4923;52.520;13.494;2023-11-21T03:35:30;5.80;99.90
9768;DHT22;4923;52.520;13.494;2023-11-21T03:38:17;5.80;99.90
9768;DHT22;4923;52.520;13.494;2023-11-21T03:41:05;5.80;99.90
9768;DHT22;4923;52.520;13.494;2023-11-21T03:43:51;5.70;99.90
9768;DHT22;4923;52.520;13.494;2023-11-21T03:46:40;5.70;99.90
9768;DHT22;4923;52.520;13.494;2023-11-21T03:49:26;5.70;99.90
9768;DHT22;4923;52.520;13.494;2023-11-21T03:52:15;5.60;99.90
9768;DHT22;4923;52.520;13.494;2023-11-21T03:55:02;5.60;99.90
9768;DHT22;4923;52.520;13.494;2023-11-21T03:57:49;5.80;99.90
9768;DHT22;4923;52.520;13.494;2023-11-21T04:00:36;5.80;99.90
9768;DHT22;4923;52.520;13.494;2023-11-21T04:03:24;5.80;99.90
9768;DHT22;4923;52.520;13.494;2023-11-21T04:06:10;5.70;99.90
9768;DHT22;4923;52.520;13.494;2023-11-21T04:08:57;5.60;99.90
9768;DHT22;4923;52.520;13.494;2023-11-21T04:11:44;5.70;99.90
9768;DHT22;4923;52.520;13.494;2023-11-21T04:14:31;5.80;99.90
9768;DHT22;4923;52.520;13.494;2023-11-21T04:17:19;5.70;99.90
9768;DHT22;4923;52.520;13.494;2023-11-21T04:20:08;5.70;99.90
9768;DHT22;4923;52.520;13.494;2023-11-21T04:22:55;5.70;99.90
9768;DHT22;4923;52.520;13.494;2023-11-21T04:25:42;5.70;99.90
9768;DHT22;4923;52.520;13.494;2023-11-21T04:28:29;5.70;99.90
9768;DHT22;4923;52.520;13.494;2023-11-21T04:31:16;5.60;99.90
9768;DHT22;4923;52.520;13.494;2023-11-21T04:34:03;5.60;99.90
9768;DHT22;4923;52.520;13.494;2023-11-21T04:36:52;5.60;99.90
9768;DHT22;4923;52.520;13.494;2023-11-21T04:39:39;5.60;99.90
9768;DHT22;4923;52.520;13.494;2023-11-21T04:42:25;5.60;99.90
9768;DHT22;4923;52.520;13.494;2023-11-21T04:45:12;5.50;99.90
9768;DHT22;4923;52.520;13.494;2023-11-21T04:47:59;5.50;99.90
9768;DHT22;4923;52.520;13.494;2023-11-21T04:50:46;5.50;99.90
9768;DHT22;4923;52.520;13.494;2023-11-21T04:53:34;5.40;99.90
9768;DHT22;4923;52.520;13.494;2023-11-21T04:56:21;5.40;99.90
9768;DHT22;4923;52.520;13.494;2023-11-21T04:59:08;5.40;99.90
9768;DHT22;4923;52.520;13.494;2023-11-21T05:01:55;5.40;99.90
9768;DHT22;4923;52.520;13.494;2023-11-21T05:04:42;5.40;99.90
9768;DHT22;4923;52.520;13.494;2023-11-21T05:07:29;5.40;99.90
9768;DHT22;4923;52.520;13.494;2023-11-21T05:10:17;5.40;99.90
9768;DHT22;4923;52.520;13.494;2023-11-21T05:13:04;5.40;99.90
9768;DHT22;4923;52.520;13.494;2023-11-21T05:15:55;5.30;99.90
9768;DHT22;4923;52.520;13.494;2023-11-21T05:18:43;5.30;99.90
9768;DHT22;4923;52.520;13.494;2023-11-21T05:21:30;5.40;99.90
9768;DHT22;4923;52.520;13.494;2023-11-21T05:24:17;5.40;99.90
9768;DHT22;4923;52.520;13.494;2023-11-21T05:27:05;5.30;99.90
9768;DHT22;4923;52.520;13.494;2023-11-21T05:29:52;5.30;99.90
9768;DHT22;4923;52.520;13.494;2023-11-21T05:32:39;5.30;99.90
9768;DHT22;4923;52.520;13.494;2023-11-21T05:35:27;5.30;99.90
9768;DHT22;4923;52.520;13.494;2023-11-21T05:38:14;5.30;99.90
9768;DHT22;4923;52.520;13.494;2023-11-21T05:41:01;5.30;99.90
9768;DHT22;4923;52.520;13.494;2023-11-21T05:43:50;5.30;99.90
9768;DHT22;4923;52.520;13.494;2023-11-21T05:46:39;5.30;99.90
9768;DHT22;4923;52.520;13.494;2023-11-21T05:49:28;5.30;99.90
9768;DHT22;4923;52.520;13.494;2023-11-21T05:52:15;5.30;99.90
9768;DHT22;4923;52.520;13.494;2023-11-21T05:55:02;5.30;99.90
9768;DHT22;4923;52.520;13.494;2023-11-21T05:57:50;5.30;99.90
9768;DHT22;4923;52.520;13.494;2023-11-21T06:00:38;5.30;99.90
9768;DHT22;4923;52.520;13.494;2023-11-21T06:03:25;5.20;99.90
9768;DHT22;4923;52.520;13.494;2023-11-21T06:06:12;5.10;99.90
9768;DHT22;4923;52.520;13.494;2023-11-21T06:08:59;5.10;99.90
9768;DHT22;4923;52.520;13.494;2023-11-21T06:11:45;5.10;99.90
9768;DHT22;4923;52.520;13.494;2023-11-21T06:14:32;5.10;99.90
9768;DHT22;4923;52.520;13.494;2023-11-21T06:17:22;5.20;99.90
9768;DHT22;4923;52.520;13.494;2023-11-21T06:20:11;5.20;99.90
9768;DHT22;4923;52.520;13.494;2023-11-21T06:22:59;5.10;99.90
9768;DHT22;4923;52.520;13.494;2023-11-21T06:25:49;5.20;99.90
9768;DHT22;4923;52.520;13.494;2023-11-21T06:28:36;5.30;99.90
9768;DHT22;4923;52.520;13.494;2023-11-21T06:31:23;5.30;99.90
9768;DHT22;4923;52.520;13.494;2023-11-21T06:34:11;5.20;99.90
9768;DHT22;4923;52.520;13.494;2023-11-21T06:36:58;5.30;99.90
9768;DHT22;4923;52.520;13.494;2023-11-21T06:39:44;5.30;99.90
9768;DHT22;4923;52.520;13.494;2023-11-21T06:42:31;5.30;99.90
9768;DHT22;4923;52.520;13.494;2023-11-21T06:45:19;5.40;99.90
9768;DHT22;4923;52.520;13.494;2023-11-21T06:48:07;5.40;99.90
9768;DHT22;4923;52.520;13.494;2023-11-21T06:50:55;5.40;99.90
9768;DHT22;4923;52.520;13.494;2023-11-21T06:53:42;5.30;99.90
9768;DHT22;4923;52.520;13.494;2023-11-21T06:56:29;5.20;99.90
9768;DHT22;4923;52.520;13.494;2023-11-21T06:59:16;5.20;99.90
9768;DHT22;4923;52.520;13.494;2023-11-21T07:02:03;5.20;99.90
9768;DHT22;4923;52.520;13.494;2023-11-21T07:04:52;5.20;99.90
9768;DHT22;4923;52.520;13.494;2023-11-21T07:07:40;5.20;99.90
9768;DHT22;4923;52.520;13.494;2023-11-21T07:10:27;5.30;99.90
9768;DHT22;4923;52.520;13.494;2023-11-21T07:13:13;5.30;99.90
9768;DHT22;4923;52.520;13.494;2023-11-21T07:16:00;5.20;99.90
9768;DHT22;4923;52.520;13.494;2023-11-21T07:18:47;5.30;99.90
9768;DHT22;4923;52.520;13.494;2023-11-21T07:21:35;5.30;99.90
9768;DHT22;4923;52.520;13.494;2023-11-21T07:24:24;5.20;99.90
9768;DHT22;4923;52.520;13.494;2023-11-21T07:27:10;5.20;99.90
9768;DHT22;4923;52.520;13.494;2023-11-21T07:29:57;5.10;99.90
9768;DHT22;4923;52.520;13.494;2023-11-21T07:32:44;5.00;99.90
9768;DHT22;4923;52.520;13.494;2023-11-21T07:35:33;5.10;99.90
9768;DHT22;4923;52.520;13.494;2023-11-21T07:38:20;5.10;99.90
9768;DHT22;4923;52.520;13.494;2023-11-21T07:41:08;5.10;99.90
9768;DHT22;4923;52.520;13.494;2023-11-21T07:43:57;5.10;99.90
9768;DHT22;4923;52.520;13.494;2023-11-21T07:46:44;5.20;99.90
9768;DHT22;4923;52.520;13.494;2023-11-21T07:49:30;5.10;99.90
9768;DHT22;4923;52.520;13.494;2023-11-21T07:52:17;5.20;99.90
9768;DHT22;4923;52.520;13.494;2023-11-21T07:55:07;5.00;99.90
9768;DHT22;4923;52.520;13.494;2023-11-21T07:57:55;5.00;99.90
9768;DHT22;4923;52.520;13.494;2023-11-21T08:00:42;5.10;99.90
9768;DHT22;4923;52.520;13.494;2023-11-21T08:03:29;5.10;99.90
9768;DHT22;4923;52.520;13.494;2023-11-21T08:06:16;5.00;99.90
9768;DHT22;4923;52.520;13.494;2023-11-21T08:09:03;5.10;99.90
9768;DHT22;4923;52.520;13.494;2023-11-21T08:11:50;5.20;99.90
9768;DHT22;4923;52.520;13.494;2023-11-21T08:14:38;5.00;99.90
9768;DHT22;4923;52.520;13.494;2023-11-21T08:17:26;5.10;99.90
9768;DHT22;4923;52.520;13.494;2023-11-21T08:20:13;4.90;99.90
9768;DHT22;4923;52.520;13.494;2023-11-21T08:23:02;4.90;99.90
9768;DHT22;4923;52.520;13.494;2023-11-21T08:25:48;4.90;99.90
9768;DHT22;4923;52.520;13.494;2023-11-21T08:28:35;4.90;99.90
9768;DHT22;4923;52.520;13.494;2023-11-21T08:31:26;5.00;99.90
9768;DHT22;4923;52.520;13.494;2023-11-21T08:34:13;5.00;99.90
9768;DHT22;4923;52.520;13.494;2023-11-21T08:37:01;5.10;99.90
9768;DHT22;4923;52.520;13.494;2023-11-21T08:39:48;5.10;99.90
9768;DHT22;4923;52.520;13.494;2023-11-21T08:42:34;5.00;99.90
9768;DHT22;4923;52.520;13.494;2023-11-21T08:45:21;5.10;99.90
9768;DHT22;4923;52.520;13.494;2023-11-21T08:48:10;5.00;99.90
9768;DHT22;4923;52.520;13.494;2023-11-21T08:50:57;5.00;99.90
9768;DHT22;4923;52.520;13.494;2023-11-21T08:53:44;5.00;99.90
9768;DHT22;4923;52.520;13.494;2023-11-21T08:56:31;5.10;99.90
9768;DHT22;4923;52.520;13.494;2023-11-21T08:59:18;5.00;99.90
9768;DHT22;4923;52.520;13.494;2023-11-21T09:02:05;4.90;99.90
9768;DHT22;4923;52.520;13.494;2023-11-21T09:04:55;5.00;99.90
9768;DHT22;4923;52.520;13.494;2023-11-21T09:07:42;4.90;99.90
9768;DHT22;4923;52.520;13.494;2023-11-21T09:10:29;4.90;99.90
9768;DHT22;4923;52.520;13.494;2023-11-21T09:13:15;4.90;99.90
9768;DHT22;4923;52.520;13.494;2023-11-21T09:16:02;5.00;99.90
9768;DHT22;4923;52.520;13.494;2023-11-21T09:18:49;4.90;99.90
9768;DHT22;4923;52.520;13.494;2023-11-21T09:21:37;4.70;99.90
9768;DHT22;4923;52.520;13.494;2023-11-21T09:24:24;4.70;99.90
9768;DHT22;4923;52.520;13.494;2023-11-21T09:27:11;4.70;99.90
9768;DHT22;4923;52.520;13.494;2023-11-21T09:29:58;4.80;99.90
9768;DHT22;4923;52.520;13.494;2023-11-21T09:32:45;4.80;99.90
9768;DHT22;4923;52.520;13.494;2023-11-21T09:35:33;4.90;99.90
9768;DHT22;4923;52.520;13.494;2023-11-21T09:38:21;5.10;99.90
9768;DHT22;4923;52.520;13.494;2023-11-21T09:41:13;5.10;99.90
9768;DHT22;4923;52.520;13.494;2023-11-21T09:44:05;5.10;99.90
9768;DHT22;4923;52.520;13.494;2023-11-21T09:46:53;5.10;99.90
9768;DHT22;4923;52.520;13.494;2023-11-21T09:49:40;5.00;99.90
9768;DHT22;4923;52.520;13.494;2023-11-21T09:52:28;5.00;99.90
9768;DHT22;4923;52.520;13.494;2023-11-21T09:55:18;5.10;99.90
9768;DHT22;4923;52.520;13.494;2023-11-21T09:58:08;5.00;99.90
9768;DHT22;4923;52.520;13.494;2023-11-21T10:00:57;5.00;99.90
9768;DHT22;4923;52.520;13.494;2023-11-21T10:03:46;5.00;99.90
9768;DHT22;4923;52.520;13.494;2023-11-21T10:06:33;4.90;99.90
9768;DHT22;4923;52.520;13.494;2023-11-21T10:09:21;4.90;99.90
9768;DHT22;4923;52.520;13.494;2023-11-21T10:12:12;5.00;99.90
9768;DHT22;4923;52.520;13.494;2023-11-21T10:15:00;5.00;99.90
9768;DHT22;4923;52.520;13.494;2023-11-21T10:17:50;5.00;99.90
9768;DHT22;4923;52.520;13.494;2023-11-21T10:20:38;5.10;99.90
9768;DHT22;4923;52.520;13.494;2023-11-21T10:23:26;5.10;99.90
9768;DHT22;4923;52.520;13.494;2023-11-21T10:26:13;5.00;99.90
9768;DHT22;4923;52.520;13.494;2023-11-21T10:29:03;5.00;99.90
9768;DHT22;4923;52.520;13.494;2023-11-21T10:31:50;4.90;99.90
9768;DHT22;4923;52.520;13.494;2023-11-21T10:34:38;4.80;99.90
9768;DHT22;4923;52.520;13.494;2023-11-21T10:37:26;4.80;99.90
9768;DHT22;4923;52.520;13.494;2023-11-21T10:40:13;4.70;99.90
9768;DHT22;4923;52.520;13.494;2023-11-21T10:43:06;4.70;99.90
9768;DHT22;4923;52.520;13.494;2023-11-21T10:45:57;4.50;99.90
9768;DHT22;4923;52.520;13.494;2023-11-21T10:48:44;4.60;99.90
9768;DHT22;4923;52.520;13.494;2023-11-21T10:51:33;4.60;99.90
9768;DHT22;4923;52.520;13.494;2023-11-21T10:54:20;4.70;99.90
9768;DHT22;4923;52.520;13.494;2023-11-21T10:57:07;4.50;99.90
9768;DHT22;4923;52.520;13.494;2023-11-21T10:59:54;4.60;99.90
9768;DHT22;4923;52.520;13.494;2023-11-21T11:02:43;4.60;99.90
9768;DHT22;4923;52.520;13.494;2023-11-21T11:05:30;4.70;99.90
9768;DHT22;4923;52.520;13.494;2023-11-21T11:08:19;4.70;99.90
9768;DHT22;4923;52.520;13.494;2023-11-21T11:11:11;4.60;99.90
9768;DHT22;4923;52.520;13.494;2023-11-21T11:14:00;4.60;99.90
9768;DHT22;4923;52.520;13.494;2023-11-21T11:16:47;4.50;99.90
9768;DHT22;4923;52.520;13.494;2023-11-21T11:19:37;4.50;99.90
9768;DHT22;4923;52.520;13.494;2023-11-21T11:22:32;4.60;99.90
9768;DHT22;4923;52.520;13.494;2023-11-21T11:25:30;4.50;99.90
9768;DHT22;4923;52.520;13.494;2023-11-21T11:28:27;4.40;99.90
9768;DHT22;4923;52.520;13.494;2023-11-21T11:31:25;4.30;99.90
9768;DHT22;4923;52.520;13.494;2023-11-21T11:34:19;4.40;99.90
9768;DHT22;4923;52.520;13.494;2023-11-21T11:37:11;4.20;99.90
9768;DHT22;4923;52.520;13.494;2023-11-21T11:39:58;4.30;99.90
9768;DHT22;4923;52.520;13.494;2023-11-21T11:42:56;4.30;99.90
9768;DHT22;4923;52.520;13.494;2023-11-21T11:45:44;4.50;99.90
9768;DHT22;4923;52.520;13.494;2023-11-21T11:48:38;4.50;99.90
9768;DHT22;4923;52.520;13.494;2023-11-21T11:51:25;4.50;99.90
9768;DHT22;4923;52.520;13.494;2023-11-21T11:54:13;4.50;99.90
9768;DHT22;4923;52.520;13.494;2023-11-21T11:57:03;4.60;99.90
9768;DHT22;4923;52.520;13.494;2023-11-21T12:00:10;4.50;99.90
9768;DHT22;4923;52.520;13.494;2023-11-21T12:03:02;4.60;99.90
9768;DHT22;4923;52.520;13.494;2023-11-21T12:05:49;4.70;99.90
9768;DHT22;4923;52.520;13.494;2023-11-21T12:08:41;4.60;99.90
9768;DHT22;4923;52.520;13.494;2023-11-21T12:11:32;4.70;99.90
9768;DHT22;4923;52.520;13.494;2023-11-21T12:14:21;4.50;99.90
9768;DHT22;4923;52.520;13.494;2023-11-21T12:17:08;4.60;99.90
9768;DHT22;4923;52.520;13.494;2023-11-21T12:20:02;4.60;99.90
9768;DHT22;4923;52.520;13.494;2023-11-21T12:22:52;4.60;99.90
9768;DHT22;4923;52.520;13.494;2023-11-21T12:25:39;4.60;99.90
9768;DHT22;4923;52.520;13.494;2023-11-21T12:28:28;4.50;99.90
9768;DHT22;4923;52.520;13.494;2023-11-21T12:31:15;4.50;99.90
9768;DHT22;4923;52.520;13.494;2023-11-21T12:34:02;4.40;99.90
9768;DHT22;4923;52.520;13.494;2023-11-21T12:36:49;4.50;99.90
9768;DHT22;4923;52.520;13.494;2023-11-21T12:39:19;4.40;99.90
9768;DHT22;4923;52.520;13.494;2023-11-21T12:42:09;4.40;99.90
9768;DHT22;4923;52.520;13.494;2023-11-21T12:45:10;4.40;99.90
9768;DHT22;4923;52.520;13.494;2023-11-21T12:48:06;4.30;99.90
9768;DHT22;4923;52.520;13.494;2023-11-21T12:50:36;4.30;99.90
9768;DHT22;4923;52.520;13.494;2023-11-21T12:53:25;4.50;99.90
9768;DHT22;4923;52.520;13.494;2023-11-21T12:56:21;4.50;99.90
9768;DHT22;4923;52.520;13.494;2023-11-21T12:59:09;4.30;99.90
9768;DHT22;4923;52.520;13.494;2023-11-21T13:01:59;4.40;99.90
9768;DHT22;4923;52.520;13.494;2023-11-21T13:04:52;4.30;99.90
9768;DHT22;4923;52.520;13.494;2023-11-21T13:07:41;4.20;99.90
9768;DHT22;4923;52.520;13.494;2023-11-21T13:10:35;4.10;99.90
9768;DHT22;4923;52.520;13.494;2023-11-21T13:13:23;3.90;99.90
9768;DHT22;4923;52.520;13.494;2023-11-21T13:16:10;3.90;99.90
9768;DHT22;4923;52.520;13.494;2023-11-21T13:18:58;3.80;99.90
9768;DHT22;4923;52.520;13.494;2023-11-21T13:21:45;3.80;99.90
9768;DHT22;4923;52.520;13.494;2023-11-21T13:24:32;3.90;99.90
9768;DHT22;4923;52.520;13.494;2023-11-21T13:27:20;3.80;99.90
9768;DHT22;4923;52.520;13.494;2023-11-21T13:30:08;3.90;99.90
9768;DHT22;4923;52.520;13.494;2023-11-21T13:32:55;4.00;99.90
9768;DHT22;4923;52.520;13.494;2023-11-21T13:35:48;4.10;99.90
9768;DHT22;4923;52.520;13.494;2023-11-21T13:38:37;4.00;99.90
9768;DHT22;4923;52.520;13.494;2023-11-21T13:41:27;3.90;99.90
9768;DHT22;4923;52.520;13.494;2023-11-21T13:44:17;3.80;99.90
9768;DHT22;4923;52.520;13.494;2023-11-21T13:47:12;3.70;99.90
9768;DHT22;4923;52.520;13.494;2023-11-21T13:49:59;3.80;99.90
9768;DHT22;4923;52.520;13.494;2023-11-21T13:52:46;3.80;99.90
9768;DHT22;4923;52.520;13.494;2023-11-21T13:55:32;3.90;99.90
9768;DHT22;4923;52.520;13.494;2023-11-21T13:58:21;3.80;99.90
9768;DHT22;4923;52.520;13.494;2023-11-21T14:01:13;3.70;99.90
9768;DHT22;4923;52.520;13.494;2023-11-21T14:04:20;3.60;99.90
9768;DHT22;4923;52.520;13.494;2023-11-21T14:07:21;3.60;99.90
9768;DHT22;4923;52.520;13.494;2023-11-21T14:10:16;3.60;99.90
9768;DHT22;4923;52.520;13.494;2023-11-21T14:13:07;3.50;99.90
9768;DHT22;4923;52.520;13.494;2023-11-21T14:15:55;3.50;99.90
9768;DHT22;4923;52.520;13.494;2023-11-21T14:18:47;3.40;99.90
9768;DHT22;4923;52.520;13.494;2023-11-21T14:21:41;3.40;99.90
9768;DHT22;4923;52.520;13.494;2023-11-21T14:24:29;3.30;99.90
9768;DHT22;4923;52.520;13.494;2023-11-21T14:27:16;3.20;99.90
9768;DHT22;4923;52.520;13.494;2023-11-21T14:30:04;3.10;99.90
9768;DHT22;4923;52.520;13.494;2023-11-21T14:32:50;3.20;99.90
9768;DHT22;4923;52.520;13.494;2023-11-21T14:35:39;3.10;99.90
9768;DHT22;4923;52.520;13.494;2023-11-21T14:38:25;3.10;99.90
9768;DHT22;4923;52.520;13.494;2023-11-21T14:41:13;3.10;99.90
9768;DHT22;4923;52.520;13.494;2023-11-21T14:44:00;3.10;99.90
9768;DHT22;4923;52.520;13.494;2023-11-21T14:46:49;3.00;99.90
9768;DHT22;4923;52.520;13.494;2023-11-21T14:49:36;3.10;99.90
9768;DHT22;4923;52.520;13.494;2023-11-21T14:52:38;3.10;99.90
9768;DHT22;4923;52.520;13.494;2023-11-21T14:55:39;3.00;99.90
9768;DHT22;4923;52.520;13.494;2023-11-21T14:58:38;3.00;99.90
9768;DHT22;4923;52.520;13.494;2023-11-21T15:01:25;2.90;99.90
9768;DHT22;4923;52.520;13.494;2023-11-21T15:04:30;2.80;99.90
9768;DHT22;4923;52.520;13.494;2023-11-21T15:07:21;2.70;99.90
9768;DHT22;4923;52.520;13.494;2023-11-21T15:10:13;2.80;99.90
9768;DHT22;4923;52.520;13.494;2023-11-21T15:13:00;2.90;99.90
9768;DHT22;4923;52.520;13.494;2023-11-21T15:15:48;2.90;99.90
9768;DHT22;4923;52.520;13.494;2023-11-21T15:18:35;2.80;99.90
9768;DHT22;4923;52.520;13.494;2023-11-21T15:21:22;2.80;99.90
9768;DHT22;4923;52.520;13.494;2023-11-21T15:24:10;2.80;99.90
9768;DHT22;4923;52.520;13.494;2023-11-21T15:26:58;2.80;99.90
9768;DHT22;4923;52.520;13.494;2023-11-21T15:29:45;2.90;99.90
9768;DHT22;4923;52.520;13.494;2023-11-21T15:32:32;2.90;99.90
9768;DHT22;4923;52.520;13.494;2023-11-21T15:35:20;2.90;99.90
9768;DHT22;4923;52.520;13.494;2023-11-21T15:38:07;2.90;99.90
9768;DHT22;4923;52.520;13.494;2023-11-21T15:40:54;2.80;99.90
9768;DHT22;4923;52.520;13.494;2023-11-21T15:43:45;2.80;99.90
9768;DHT22;4923;52.520;13.494;2023-11-21T15:46:34;2.80;99.90
9768;DHT22;4923;52.520;13.494;2023-11-21T15:49:23;2.80;99.90
9768;DHT22;4923;52.520;13.494;2023-11-21T15:52:10;2.80;99.90
9768;DHT22;4923;52.520;13.494;2023-11-21T15:54:57;2.80;99.90
9768;DHT22;4923;52.520;13.494;2023-11-21T15:57:44;2.80;99.90
9768;DHT22;4923;52.520;13.494;2023-11-21T16:00:32;2.80;99.90
9768;DHT22;4923;52.520;13.494;2023-11-21T16:03:19;2.80;99.90
9768;DHT22;4923;52.520;13.494;2023-11-21T16:06:07;2.80;99.90
9768;DHT22;4923;52.520;13.494;2023-11-21T16:08:55;2.90;99.90
9768;DHT22;4923;52.520;13.494;2023-11-21T16:11:43;2.80;99.90
9768;DHT22;4923;52.520;13.494;2023-11-21T16:14:31;2.70;99.90
9768;DHT22;4923;52.520;13.494;2023-11-21T16:17:23;2.80;99.90
9768;DHT22;4923;52.520;13.494;2023-11-21T16:20:10;2.90;99.90
9768;DHT22;4923;52.520;13.494;2023-11-21T16:22:59;2.90;99.90
9768;DHT22;4923;52.520;13.494;2023-11-21T16:25:46;2.80;99.90
9768;DHT22;4923;52.520;13.494;2023-11-21T16:28:40;2.80;99.90
9768;DHT22;4923;52.520;13.494;2023-11-21T16:31:27;2.80;99.90
9768;DHT22;4923;52.520;13.494;2023-11-21T16:34:17;2.70;99.90
9768;DHT22;4923;52.520;13.494;2023-11-21T16:37:05;2.70;99.90
9768;DHT22;4923;52.520;13.494;2023-11-21T16:39:52;2.70;99.90
9768;DHT22;4923;52.520;13.494;2023-11-21T16:42:39;2.80;99.90
9768;DHT22;4923;52.520;13.494;2023-11-21T16:45:26;2.70;99.90
9768;DHT22;4923;52.520;13.494;2023-11-21T16:48:13;2.70;99.90
9768;DHT22;4923;52.520;13.494;2023-11-21T16:51:01;2.80;99.90
9768;DHT22;4923;52.520;13.494;2023-11-21T16:53:48;2.80;99.90
9768;DHT22;4923;52.520;13.494;2023-11-21T16:56:35;2.70;99.90
9768;DHT22;4923;52.520;13.494;2023-11-21T16:59:22;2.70;99.90
9768;DHT22;4923;52.520;13.494;2023-11-21T17:02:09;2.60;99.90
9768;DHT22;4923;52.520;13.494;2023-11-21T17:04:56;2.70;99.90
9768;DHT22;4923;52.520;13.494;2023-11-21T17:07:45;2.70;99.90
9768;DHT22;4923;52.520;13.494;2023-11-21T17:10:32;2.60;99.90
9768;DHT22;4923;52.520;13.494;2023-11-21T17:13:19;2.60;99.90
9768;DHT22;4923;52.520;13.494;2023-11-21T17:16:06;2.60;99.90
9768;DHT22;4923;52.520;13.494;2023-11-21T17:18:53;2.60;99.90
9768;DHT22;4923;52.520;13.494;2023-11-21T17:21:40;2.60;99.90
9768;DHT22;4923;52.520;13.494;2023-11-21T17:24:28;2.70;99.90
9768;DHT22;4923;52.520;13.494;2023-11-21T17:27:14;2.70;99.90
9768;DHT22;4923;52.520;13.494;2023-11-21T17:30:01;2.70;99.90
9768;DHT22;4923;52.520;13.494;2023-11-21T17:32:48;2.60;99.90
9768;DHT22;4923;52.520;13.494;2023-11-21T17:35:36;2.60;99.90
9768;DHT22;4923;52.520;13.494;2023-11-21T17:38:23;2.70;99.90
9768;DHT22;4923;52.520;13.494;2023-11-21T17:41:12;2.60;99.90
9768;DHT22;4923;52.520;13.494;2023-11-21T17:43:59;2.60;99.90
9768;DHT22;4923;52.520;13.494;2023-11-21T17:46:49;2.70;99.90
9768;DHT22;4923;52.520;13.494;2023-11-21T17:49:36;2.60;99.90
9768;DHT22;4923;52.520;13.494;2023-11-21T17:52:24;2.60;99.90
9768;DHT22;4923;52.520;13.494;2023-11-21T17:55:11;2.60;99.90
9768;DHT22;4923;52.520;13.494;2023-11-21T17:57:59;2.50;99.90
9768;DHT22;4923;52.520;13.494;2023-11-21T18:00:46;2.50;99.90
9768;DHT22;4923;52.520;13.494;2023-11-21T18:03:33;2.60;99.90
9768;DHT22;4923;52.520;13.494;2023-11-21T18:06:20;2.50;99.90
9768;DHT22;4923;52.520;13.494;2023-11-21T18:09:07;2.50;99.90
9768;DHT22;4923;52.520;13.494;2023-11-21T18:11:54;2.40;99.90
9768;DHT22;4923;52.520;13.494;2023-11-21T18:14:42;2.30;99.90
9768;DHT22;4923;52.520;13.494;2023-11-21T18:17:34;2.30;99.90